Overview Statistics Trail Chart Weather Telemetry Raw packets
 

This is the latest recevied weather packets stored in our database for station/object DK6GC-10. If no packets are shown the sender has not sent any weather packets the latest 10 day(s).

<< 2 3 4 5 6 7 8 >>
Time Temp. Humidity Pressure Rain* Wind** Luminosity Snow
1788622226 25.56° C 100% 1277.5 hPa - - - -
1788621322 25.56° C 39% 1024.4 hPa - - - -
1788620421 25.56° C 40% 1024.4 hPa - - - -
1788619521 25.56° C 40% 1024.4 hPa - - - -
1788618621 25.56° C 39% 1024.4 hPa - - - -
1788617721 25.56° C 41% 1024.5 hPa - - - -
1788616821 25.56° C 42% 1024.5 hPa - - - -
1788615920 25.56° C 42% 1024.4 hPa - - - -
1788615020 25.56° C 45% 1024.6 hPa - - - -
1788614120 25.56° C 45% 1024.6 hPa - - - -
1788613219 25.56° C 45% 1024.6 hPa - - - -
1788612319 25.56° C 45% 1024.6 hPa - - - -
1788611419 25° C 44% 1024.7 hPa - - - -
1788610519 25° C 48% 1024.8 hPa - - - -
1788609626 25.56° C 48% 1024.7 hPa - - - -
1788608726 25° C 49% 1024.9 hPa - - - -
1788607826 24.44° C 51% 1024.7 hPa - - - -
1788606926 25° C 51% 1024.7 hPa - - - -
1788606025 25° C 53% 1024.8 hPa - - - -
1788605125 24.44° C 53% 1024.9 hPa - - - -
1788604225 24.44° C 57% 1024.8 hPa - - - -
1788603325 23.89° C 60% 1024.8 hPa - - - -
1788602424 22.78° C 63% 1025 hPa - - - -
1788601525 22.22° C 63% 1024.9 hPa - - - -
1788600624 22.22° C 67% 1024.7 hPa - - - -

* Rain since midnight (hover to see other rain measurements)
** Current wind speed in m/s (hover to see current wind gust speed)